sensor_id;sensor_type;location;lat;lon;timestamp;P1;durP1;ratioP1;P2;durP2;ratioP2
17347;SDS011;8791;50.876;4.342;2022-08-06T00:01:56;3.90;;;1.02;;
17347;SDS011;8791;50.876;4.342;2022-08-06T00:04:22;2.90;;;1.10;;
17347;SDS011;8791;50.876;4.342;2022-08-06T00:06:49;3.07;;;1.10;;
17347;SDS011;8791;50.876;4.342;2022-08-06T00:09:16;4.37;;;0.90;;
17347;SDS011;8791;50.876;4.342;2022-08-06T00:11:43;3.07;;;0.80;;
17347;SDS011;8791;50.876;4.342;2022-08-06T00:14:10;9.27;;;1.40;;
17347;SDS011;8791;50.876;4.342;2022-08-06T00:16:37;3.97;;;1.00;;
17347;SDS011;8791;50.876;4.342;2022-08-06T00:19:05;2.63;;;1.03;;
17347;SDS011;8791;50.876;4.342;2022-08-06T00:21:32;3.07;;;1.27;;
17347;SDS011;8791;50.876;4.342;2022-08-06T00:23:59;3.07;;;1.13;;
17347;SDS011;8791;50.876;4.342;2022-08-06T00:26:26;7.43;;;1.13;;
17347;SDS011;8791;50.876;4.342;2022-08-06T00:28:53;3.13;;;1.10;;
17347;SDS011;8791;50.876;4.342;2022-08-06T00:31:20;2.97;;;1.10;;
17347;SDS011;8791;50.876;4.342;2022-08-06T00:33:47;5.57;;;1.37;;
17347;SDS011;8791;50.876;4.342;2022-08-06T00:36:15;4.50;;;0.80;;
17347;SDS011;8791;50.876;4.342;2022-08-06T00:38:42;4.23;;;1.03;;
17347;SDS011;8791;50.876;4.342;2022-08-06T00:41:09;4.10;;;1.27;;
17347;SDS011;8791;50.876;4.342;2022-08-06T00:43:39;4.60;;;1.13;;
17347;SDS011;8791;50.876;4.342;2022-08-06T00:46:07;6.07;;;0.93;;
17347;SDS011;8791;50.876;4.342;2022-08-06T00:48:34;6.63;;;1.30;;
17347;SDS011;8791;50.876;4.342;2022-08-06T00:51:01;5.70;;;1.67;;
17347;SDS011;8791;50.876;4.342;2022-08-06T00:53:29;4.00;;;1.57;;
17347;SDS011;8791;50.876;4.342;2022-08-06T00:55:56;4.30;;;1.27;;
17347;SDS011;8791;50.876;4.342;2022-08-06T00:58:23;4.87;;;1.00;;
17347;SDS011;8791;50.876;4.342;2022-08-06T01:00:50;8.93;;;1.27;;
17347;SDS011;8791;50.876;4.342;2022-08-06T01:03:17;7.37;;;1.07;;
17347;SDS011;8791;50.876;4.342;2022-08-06T01:05:44;6.97;;;1.50;;
17347;SDS011;8791;50.876;4.342;2022-08-06T01:08:11;5.60;;;0.90;;
17347;SDS011;8791;50.876;4.342;2022-08-06T01:10:39;6.60;;;1.40;;
17347;SDS011;8791;50.876;4.342;2022-08-06T01:13:07;3.83;;;1.37;;
17347;SDS011;8791;50.876;4.342;2022-08-06T01:15:34;5.97;;;1.87;;
17347;SDS011;8791;50.876;4.342;2022-08-06T01:18:03;5.90;;;1.50;;
17347;SDS011;8791;50.876;4.342;2022-08-06T01:20:37;5.17;;;1.10;;
17347;SDS011;8791;50.876;4.342;2022-08-06T01:23:15;3.73;;;1.17;;
17347;SDS011;8791;50.876;4.342;2022-08-06T01:28:57;1.70;;;1.07;;
17347;SDS011;8791;50.876;4.342;2022-08-06T01:31:28;4.23;;;1.30;;
17347;SDS011;8791;50.876;4.342;2022-08-06T01:33:59;5.70;;;1.90;;
17347;SDS011;8791;50.876;4.342;2022-08-06T01:36:32;7.80;;;1.20;;
17347;SDS011;8791;50.876;4.342;2022-08-06T01:39:03;4.67;;;1.00;;
17347;SDS011;8791;50.876;4.342;2022-08-06T01:41:30;5.43;;;1.03;;
17347;SDS011;8791;50.876;4.342;2022-08-06T01:44:07;7.93;;;1.10;;
17347;SDS011;8791;50.876;4.342;2022-08-06T01:46:36;10.30;;;1.40;;
17347;SDS011;8791;50.876;4.342;2022-08-06T01:49:06;7.43;;;1.30;;
17347;SDS011;8791;50.876;4.342;2022-08-06T01:51:34;3.23;;;1.20;;
17347;SDS011;8791;50.876;4.342;2022-08-06T01:54:03;7.03;;;1.00;;
17347;SDS011;8791;50.876;4.342;2022-08-06T01:56:34;3.67;;;1.20;;
17347;SDS011;8791;50.876;4.342;2022-08-06T01:59:03;3.20;;;1.07;;
17347;SDS011;8791;50.876;4.342;2022-08-06T02:01:34;3.03;;;1.20;;
17347;SDS011;8791;50.876;4.342;2022-08-06T02:04:02;6.97;;;1.33;;
17347;SDS011;8791;50.876;4.342;2022-08-06T02:06:32;3.83;;;0.93;;
17347;SDS011;8791;50.876;4.342;2022-08-06T02:09:02;7.53;;;1.90;;
17347;SDS011;8791;50.876;4.342;2022-08-06T02:11:31;8.70;;;1.43;;
17347;SDS011;8791;50.876;4.342;2022-08-06T02:14:00;5.40;;;1.30;;
17347;SDS011;8791;50.876;4.342;2022-08-06T02:16:30;7.63;;;1.30;;
17347;SDS011;8791;50.876;4.342;2022-08-06T02:19:01;9.27;;;1.53;;
17347;SDS011;8791;50.876;4.342;2022-08-06T02:21:29;6.50;;;1.17;;
17347;SDS011;8791;50.876;4.342;2022-08-06T02:23:59;3.37;;;1.33;;
17347;SDS011;8791;50.876;4.342;2022-08-06T02:26:28;3.00;;;1.27;;
17347;SDS011;8791;50.876;4.342;2022-08-06T02:28:59;3.03;;;1.20;;
17347;SDS011;8791;50.876;4.342;2022-08-06T02:31:28;6.23;;;1.03;;
17347;SDS011;8791;50.876;4.342;2022-08-06T02:33:55;7.67;;;1.20;;
17347;SDS011;8791;50.876;4.342;2022-08-06T02:36:24;4.00;;;1.03;;
17347;SDS011;8791;50.876;4.342;2022-08-06T02:38:59;2.67;;;0.97;;
17347;SDS011;8791;50.876;4.342;2022-08-06T02:41:32;6.50;;;1.30;;
17347;SDS011;8791;50.876;4.342;2022-08-06T02:44:05;5.23;;;1.27;;
17347;SDS011;8791;50.876;4.342;2022-08-06T02:46:37;5.90;;;1.40;;
17347;SDS011;8791;50.876;4.342;2022-08-06T02:49:09;3.90;;;1.37;;
17347;SDS011;8791;50.876;4.342;2022-08-06T02:51:43;7.60;;;1.40;;
17347;SDS011;8791;50.876;4.342;2022-08-06T02:54:19;4.43;;;1.00;;
17347;SDS011;8791;50.876;4.342;2022-08-06T02:56:49;3.10;;;1.10;;
17347;SDS011;8791;50.876;4.342;2022-08-06T02:59:20;8.60;;;1.30;;
17347;SDS011;8791;50.876;4.342;2022-08-06T03:01:52;4.83;;;1.20;;
17347;SDS011;8791;50.876;4.342;2022-08-06T03:04:24;6.37;;;1.30;;
17347;SDS011;8791;50.876;4.342;2022-08-06T03:06:54;6.77;;;1.70;;
17347;SDS011;8791;50.876;4.342;2022-08-06T03:09:24;7.03;;;1.13;;
17347;SDS011;8791;50.876;4.342;2022-08-06T03:11:52;7.10;;;1.33;;
17347;SDS011;8791;50.876;4.342;2022-08-06T03:14:19;5.07;;;1.40;;
17347;SDS011;8791;50.876;4.342;2022-08-06T03:16:48;6.87;;;1.57;;
17347;SDS011;8791;50.876;4.342;2022-08-06T03:19:17;9.33;;;1.40;;
17347;SDS011;8791;50.876;4.342;2022-08-06T03:21:45;3.43;;;1.20;;
17347;SDS011;8791;50.876;4.342;2022-08-06T03:24:15;2.70;;;1.30;;
17347;SDS011;8791;50.876;4.342;2022-08-06T03:26:43;6.73;;;1.77;;
17347;SDS011;8791;50.876;4.342;2022-08-06T03:29:11;2.40;;;1.23;;
17347;SDS011;8791;50.876;4.342;2022-08-06T03:31:38;3.53;;;1.60;;
17347;SDS011;8791;50.876;4.342;2022-08-06T03:34:06;4.10;;;1.67;;
17347;SDS011;8791;50.876;4.342;2022-08-06T03:36:33;4.40;;;1.87;;
17347;SDS011;8791;50.876;4.342;2022-08-06T03:39:02;2.83;;;1.50;;
17347;SDS011;8791;50.876;4.342;2022-08-06T03:41:34;4.47;;;1.63;;
17347;SDS011;8791;50.876;4.342;2022-08-06T03:44:03;5.30;;;1.80;;
17347;SDS011;8791;50.876;4.342;2022-08-06T03:46:31;3.33;;;1.30;;
17347;SDS011;8791;50.876;4.342;2022-08-06T03:49:04;2.90;;;1.80;;
17347;SDS011;8791;50.876;4.342;2022-08-06T03:51:35;2.83;;;1.60;;
17347;SDS011;8791;50.876;4.342;2022-08-06T03:54:03;4.67;;;1.27;;
17347;SDS011;8791;50.876;4.342;2022-08-06T03:56:34;5.57;;;1.80;;
17347;SDS011;8791;50.876;4.342;2022-08-06T03:59:03;4.97;;;1.87;;
17347;SDS011;8791;50.876;4.342;2022-08-06T04:01:34;4.60;;;1.80;;
17347;SDS011;8791;50.876;4.342;2022-08-06T04:04:03;7.47;;;2.00;;
17347;SDS011;8791;50.876;4.342;2022-08-06T04:06:31;8.23;;;1.80;;
17347;SDS011;8791;50.876;4.342;2022-08-06T04:08:59;7.97;;;2.00;;
17347;SDS011;8791;50.876;4.342;2022-08-06T04:11:27;5.50;;;2.13;;
17347;SDS011;8791;50.876;4.342;2022-08-06T04:13:56;4.57;;;2.20;;
17347;SDS011;8791;50.876;4.342;2022-08-06T04:16:24;3.30;;;2.10;;
17347;SDS011;8791;50.876;4.342;2022-08-06T04:18:53;8.17;;;2.20;;
17347;SDS011;8791;50.876;4.342;2022-08-06T04:21:22;3.87;;;1.80;;
17347;SDS011;8791;50.876;4.342;2022-08-06T04:23:50;2.77;;;1.60;;
17347;SDS011;8791;50.876;4.342;2022-08-06T04:26:19;4.33;;;2.03;;
17347;SDS011;8791;50.876;4.342;2022-08-06T04:28:49;9.13;;;1.90;;
17347;SDS011;8791;50.876;4.342;2022-08-06T04:31:20;6.83;;;1.87;;
17347;SDS011;8791;50.876;4.342;2022-08-06T04:33:47;8.40;;;2.47;;
17347;SDS011;8791;50.876;4.342;2022-08-06T04:36:15;12.83;;;1.73;;
17347;SDS011;8791;50.876;4.342;2022-08-06T04:38:43;7.33;;;1.70;;
17347;SDS011;8791;50.876;4.342;2022-08-06T04:41:11;5.73;;;1.73;;
17347;SDS011;8791;50.876;4.342;2022-08-06T04:43:39;4.67;;;1.50;;
17347;SDS011;8791;50.876;4.342;2022-08-06T04:46:06;5.10;;;1.70;;
17347;SDS011;8791;50.876;4.342;2022-08-06T04:48:35;4.07;;;1.67;;
17347;SDS011;8791;50.876;4.342;2022-08-06T04:51:02;8.80;;;1.77;;
17347;SDS011;8791;50.876;4.342;2022-08-06T04:53:34;6.10;;;2.07;;
17347;SDS011;8791;50.876;4.342;2022-08-06T04:56:02;4.73;;;1.47;;
17347;SDS011;8791;50.876;4.342;2022-08-06T04:58:30;9.07;;;2.13;;
17347;SDS011;8791;50.876;4.342;2022-08-06T05:00:56;7.50;;;2.10;;
17347;SDS011;8791;50.876;4.342;2022-08-06T05:03:23;7.90;;;2.22;;
17347;SDS011;8791;50.876;4.342;2022-08-06T05:05:53;4.50;;;2.30;;
17347;SDS011;8791;50.876;4.342;2022-08-06T05:08:25;5.95;;;2.25;;
17347;SDS011;8791;50.876;4.342;2022-08-06T05:10:56;7.32;;;2.42;;
17347;SDS011;8791;50.876;4.342;2022-08-06T05:13:26;5.05;;;2.70;;
17347;SDS011;8791;50.876;4.342;2022-08-06T05:16:00;7.75;;;2.00;;
17347;SDS011;8791;50.876;4.342;2022-08-06T05:18:33;5.50;;;2.30;;
17347;SDS011;8791;50.876;4.342;2022-08-06T05:21:03;5.35;;;2.00;;
17347;SDS011;8791;50.876;4.342;2022-08-06T05:23:33;3.38;;;2.05;;
17347;SDS011;8791;50.876;4.342;2022-08-06T05:26:01;5.45;;;2.10;;
17347;SDS011;8791;50.876;4.342;2022-08-06T05:28:28;8.07;;;1.67;;
17347;SDS011;8791;50.876;4.342;2022-08-06T05:30:57;5.35;;;1.52;;
17347;SDS011;8791;50.876;4.342;2022-08-06T05:33:24;3.95;;;1.90;;
17347;SDS011;8791;50.876;4.342;2022-08-06T05:35:52;4.80;;;1.95;;
17347;SDS011;8791;50.876;4.342;2022-08-06T05:38:20;3.83;;;1.80;;
17347;SDS011;8791;50.876;4.342;2022-08-06T05:40:47;4.07;;;2.10;;
17347;SDS011;8791;50.876;4.342;2022-08-06T05:43:15;6.43;;;1.75;;
17347;SDS011;8791;50.876;4.342;2022-08-06T05:45:41;10.55;;;2.28;;
17347;SDS011;8791;50.876;4.342;2022-08-06T05:48:11;5.32;;;1.98;;
17347;SDS011;8791;50.876;4.342;2022-08-06T05:50:41;10.27;;;1.95;;
17347;SDS011;8791;50.876;4.342;2022-08-06T05:53:15;6.15;;;2.00;;
17347;SDS011;8791;50.876;4.342;2022-08-06T05:55:50;5.47;;;1.60;;
17347;SDS011;8791;50.876;4.342;2022-08-06T05:58:23;6.20;;;1.60;;
17347;SDS011;8791;50.876;4.342;2022-08-06T06:00:56;10.55;;;1.85;;
17347;SDS011;8791;50.876;4.342;2022-08-06T06:03:26;5.57;;;1.58;;
17347;SDS011;8791;50.876;4.342;2022-08-06T06:05:54;4.53;;;1.85;;
17347;SDS011;8791;50.876;4.342;2022-08-06T06:08:22;7.40;;;1.85;;
17347;SDS011;8791;50.876;4.342;2022-08-06T06:10:51;11.52;;;1.80;;
17347;SDS011;8791;50.876;4.342;2022-08-06T06:13:19;5.13;;;1.77;;
17347;SDS011;8791;50.876;4.342;2022-08-06T06:15:49;5.15;;;1.73;;
17347;SDS011;8791;50.876;4.342;2022-08-06T06:18:25;8.70;;;2.00;;
17347;SDS011;8791;50.876;4.342;2022-08-06T06:21:00;6.30;;;2.23;;
17347;SDS011;8791;50.876;4.342;2022-08-06T06:23:36;4.63;;;1.05;;
17347;SDS011;8791;50.876;4.342;2022-08-06T06:26:12;6.43;;;1.50;;
17347;SDS011;8791;50.876;4.342;2022-08-06T06:28:50;4.30;;;1.67;;
17347;SDS011;8791;50.876;4.342;2022-08-06T06:31:26;4.90;;;1.10;;
17347;SDS011;8791;50.876;4.342;2022-08-06T06:34:00;6.80;;;1.20;;
17347;SDS011;8791;50.876;4.342;2022-08-06T06:36:33;4.73;;;1.30;;
17347;SDS011;8791;50.876;4.342;2022-08-06T06:39:06;8.45;;;1.30;;
17347;SDS011;8791;50.876;4.342;2022-08-06T06:41:36;3.97;;;1.60;;
17347;SDS011;8791;50.876;4.342;2022-08-06T06:44:09;9.65;;;1.83;;
17347;SDS011;8791;50.876;4.342;2022-08-06T06:46:43;5.40;;;1.08;;
17347;SDS011;8791;50.876;4.342;2022-08-06T06:49:24;6.65;;;1.20;;
17347;SDS011;8791;50.876;4.342;2022-08-06T06:51:58;5.82;;;1.58;;
17347;SDS011;8791;50.876;4.342;2022-08-06T06:54:31;9.65;;;1.45;;
17347;SDS011;8791;50.876;4.342;2022-08-06T06:57:02;2.83;;;1.10;;
17347;SDS011;8791;50.876;4.342;2022-08-06T06:59:32;8.13;;;1.30;;
17347;SDS011;8791;50.876;4.342;2022-08-06T07:02:02;4.40;;;1.27;;
17347;SDS011;8791;50.876;4.342;2022-08-06T07:04:30;4.85;;;1.27;;
17347;SDS011;8791;50.876;4.342;2022-08-06T07:06:58;8.48;;;1.42;;
17347;SDS011;8791;50.876;4.342;2022-08-06T07:09:27;7.00;;;1.10;;
17347;SDS011;8791;50.876;4.342;2022-08-06T07:11:56;4.60;;;1.50;;
17347;SDS011;8791;50.876;4.342;2022-08-06T07:14:26;4.78;;;1.00;;
17347;SDS011;8791;50.876;4.342;2022-08-06T07:16:55;6.07;;;1.27;;
17347;SDS011;8791;50.876;4.342;2022-08-06T07:19:24;4.07;;;1.23;;
17347;SDS011;8791;50.876;4.342;2022-08-06T07:21:52;7.07;;;1.30;;
17347;SDS011;8791;50.876;4.342;2022-08-06T07:24:20;6.70;;;1.30;;
17347;SDS011;8791;50.876;4.342;2022-08-06T07:26:49;6.35;;;1.33;;
17347;SDS011;8791;50.876;4.342;2022-08-06T07:29:17;5.80;;;1.07;;
17347;SDS011;8791;50.876;4.342;2022-08-06T07:31:47;6.13;;;1.13;;
17347;SDS011;8791;50.876;4.342;2022-08-06T07:34:15;1.67;;;0.93;;
17347;SDS011;8791;50.876;4.342;2022-08-06T07:36:44;5.57;;;1.30;;
17347;SDS011;8791;50.876;4.342;2022-08-06T07:39:22;6.20;;;1.60;;
17347;SDS011;8791;50.876;4.342;2022-08-06T07:41:53;6.37;;;0.90;;
17347;SDS011;8791;50.876;4.342;2022-08-06T07:44:22;3.30;;;1.10;;
17347;SDS011;8791;50.876;4.342;2022-08-06T07:46:52;4.73;;;1.73;;
17347;SDS011;8791;50.876;4.342;2022-08-06T07:49:22;4.97;;;1.40;;
17347;SDS011;8791;50.876;4.342;2022-08-06T07:51:52;3.83;;;1.08;;
17347;SDS011;8791;50.876;4.342;2022-08-06T07:54:21;6.95;;;0.80;;
17347;SDS011;8791;50.876;4.342;2022-08-06T07:56:50;8.60;;;1.70;;
17347;SDS011;8791;50.876;4.342;2022-08-06T07:59:18;5.95;;;1.20;;
17347;SDS011;8791;50.876;4.342;2022-08-06T08:01:45;4.25;;;0.82;;
17347;SDS011;8791;50.876;4.342;2022-08-06T08:04:14;3.53;;;0.85;;
17347;SDS011;8791;50.876;4.342;2022-08-06T08:07:11;8.20;;;1.50;;
17347;SDS011;8791;50.876;4.342;2022-08-06T08:09:38;5.10;;;1.10;;
17347;SDS011;8791;50.876;4.342;2022-08-06T08:12:06;2.67;;;1.15;;
17347;SDS011;8791;50.876;4.342;2022-08-06T08:14:33;4.95;;;1.33;;
17347;SDS011;8791;50.876;4.342;2022-08-06T08:17:01;6.93;;;1.33;;
17347;SDS011;8791;50.876;4.342;2022-08-06T08:19:30;3.40;;;0.88;;
17347;SDS011;8791;50.876;4.342;2022-08-06T08:21:58;4.80;;;0.90;;
17347;SDS011;8791;50.876;4.342;2022-08-06T08:24:27;4.53;;;1.10;;
17347;SDS011;8791;50.876;4.342;2022-08-06T08:26:56;2.40;;;0.75;;
17347;SDS011;8791;50.876;4.342;2022-08-06T08:29:23;5.25;;;1.02;;
17347;SDS011;8791;50.876;4.342;2022-08-06T08:31:50;4.45;;;1.20;;
17347;SDS011;8791;50.876;4.342;2022-08-06T08:34:17;5.53;;;1.30;;
17347;SDS011;8791;50.876;4.342;2022-08-06T08:36:46;2.60;;;0.68;;
17347;SDS011;8791;50.876;4.342;2022-08-06T08:39:12;6.32;;;0.90;;
17347;SDS011;8791;50.876;4.342;2022-08-06T08:41:44;3.75;;;0.88;;
17347;SDS011;8791;50.876;4.342;2022-08-06T08:44:13;1.35;;;0.90;;
17347;SDS011;8791;50.876;4.342;2022-08-06T08:46:41;4.18;;;1.00;;
17347;SDS011;8791;50.876;4.342;2022-08-06T08:49:13;4.15;;;1.00;;
17347;SDS011;8791;50.876;4.342;2022-08-06T08:51:47;2.05;;;0.80;;
17347;SDS011;8791;50.876;4.342;2022-08-06T08:54:18;2.67;;;1.00;;
17347;SDS011;8791;50.876;4.342;2022-08-06T08:56:48;3.15;;;0.70;;
17347;SDS011;8791;50.876;4.342;2022-08-06T08:59:15;4.38;;;1.00;;
17347;SDS011;8791;50.876;4.342;2022-08-06T09:01:43;5.32;;;1.00;;
17347;SDS011;8791;50.876;4.342;2022-08-06T09:04:10;2.28;;;0.68;;
17347;SDS011;8791;50.876;4.342;2022-08-06T09:06:37;2.53;;;0.90;;
17347;SDS011;8791;50.876;4.342;2022-08-06T09:09:06;1.90;;;1.00;;
17347;SDS011;8791;50.876;4.342;2022-08-06T09:11:34;10.55;;;1.10;;
17347;SDS011;8791;50.876;4.342;2022-08-06T09:14:02;3.80;;;1.40;;
17347;SDS011;8791;50.876;4.342;2022-08-06T09:16:30;1.95;;;1.00;;
17347;SDS011;8791;50.876;4.342;2022-08-06T09:18:58;4.10;;;1.15;;
17347;SDS011;8791;50.876;4.342;2022-08-06T09:21:25;3.10;;;1.05;;
17347;SDS011;8791;50.876;4.342;2022-08-06T09:23:52;1.63;;;0.75;;
17347;SDS011;8791;50.876;4.342;2022-08-06T09:26:20;6.20;;;0.90;;
17347;SDS011;8791;50.876;4.342;2022-08-06T09:28:47;7.72;;;1.33;;
17347;SDS011;8791;50.876;4.342;2022-08-06T09:31:15;2.45;;;1.10;;
17347;SDS011;8791;50.876;4.342;2022-08-06T09:33:57;5.65;;;1.00;;
17347;SDS011;8791;50.876;4.342;2022-08-06T09:36:25;2.20;;;0.85;;
17347;SDS011;8791;50.876;4.342;2022-08-06T09:38:54;5.72;;;1.15;;
17347;SDS011;8791;50.876;4.342;2022-08-06T09:41:25;3.65;;;0.82;;
17347;SDS011;8791;50.876;4.342;2022-08-06T09:43:53;5.30;;;1.63;;
17347;SDS011;8791;50.876;4.342;2022-08-06T09:46:34;7.53;;;1.15;;
17347;SDS011;8791;50.876;4.342;2022-08-06T09:49:02;4.95;;;1.00;;
17347;SDS011;8791;50.876;4.342;2022-08-06T09:51:29;6.25;;;1.30;;
17347;SDS011;8791;50.876;4.342;2022-08-06T09:53:59;3.70;;;0.82;;
17347;SDS011;8791;50.876;4.342;2022-08-06T09:56:29;2.42;;;0.70;;
17347;SDS011;8791;50.876;4.342;2022-08-06T09:58:57;3.90;;;1.40;;
17347;SDS011;8791;50.876;4.342;2022-08-06T10:01:25;4.43;;;0.90;;
17347;SDS011;8791;50.876;4.342;2022-08-06T10:03:53;5.22;;;1.33;;
17347;SDS011;8791;50.876;4.342;2022-08-06T10:06:21;5.25;;;1.10;;
17347;SDS011;8791;50.876;4.342;2022-08-06T10:09:04;2.50;;;0.90;;
17347;SDS011;8791;50.876;4.342;2022-08-06T10:11:37;1.80;;;1.05;;
17347;SDS011;8791;50.876;4.342;2022-08-06T10:14:05;2.22;;;0.70;;
17347;SDS011;8791;50.876;4.342;2022-08-06T10:19:29;2.85;;;0.70;;
17347;SDS011;8791;50.876;4.342;2022-08-06T10:22:02;2.63;;;1.00;;
17347;SDS011;8791;50.876;4.342;2022-08-06T10:24:30;2.22;;;0.70;;
17347;SDS011;8791;50.876;4.342;2022-08-06T10:27:00;1.83;;;0.65;;
17347;SDS011;8791;50.876;4.342;2022-08-06T10:29:27;2.72;;;0.82;;
17347;SDS011;8791;50.876;4.342;2022-08-06T10:31:56;3.65;;;0.60;;
17347;SDS011;8791;50.876;4.342;2022-08-06T10:34:31;0.77;;;0.40;;
17347;SDS011;8791;50.876;4.342;2022-08-06T10:37:03;0.90;;;0.50;;
17347;SDS011;8791;50.876;4.342;2022-08-06T10:39:33;0.73;;;0.57;;
17347;SDS011;8791;50.876;4.342;2022-08-06T10:42:03;2.20;;;1.00;;
17347;SDS011;8791;50.876;4.342;2022-08-06T10:44:32;3.33;;;0.80;;
17347;SDS011;8791;50.876;4.342;2022-08-06T10:47:00;1.92;;;0.50;;
17347;SDS011;8791;50.876;4.342;2022-08-06T10:49:29;2.42;;;0.85;;
17347;SDS011;8791;50.876;4.342;2022-08-06T10:51:57;2.70;;;0.60;;
17347;SDS011;8791;50.876;4.342;2022-08-06T10:54:25;2.03;;;0.65;;
17347;SDS011;8791;50.876;4.342;2022-08-06T10:56:52;1.27;;;0.70;;
17347;SDS011;8791;50.876;4.342;2022-08-06T10:59:20;2.05;;;0.77;;
17347;SDS011;8791;50.876;4.342;2022-08-06T11:01:49;1.50;;;0.70;;
17347;SDS011;8791;50.876;4.342;2022-08-06T11:04:33;3.47;;;0.90;;
17347;SDS011;8791;50.876;4.342;2022-08-06T11:07:15;3.42;;;0.77;;
17347;SDS011;8791;50.876;4.342;2022-08-06T11:13:05;3.85;;;0.95;;
17347;SDS011;8791;50.876;4.342;2022-08-06T11:15:39;5.22;;;0.80;;
17347;SDS011;8791;50.876;4.342;2022-08-06T11:18:07;2.33;;;0.50;;
17347;SDS011;8791;50.876;4.342;2022-08-06T11:20:36;2.97;;;0.90;;
17347;SDS011;8791;50.876;4.342;2022-08-06T11:25:54;1.65;;;0.70;;
17347;SDS011;8791;50.876;4.342;2022-08-06T11:31:30;4.95;;;0.60;;
17347;SDS011;8791;50.876;4.342;2022-08-06T11:34:00;4.57;;;1.35;;
17347;SDS011;8791;50.876;4.342;2022-08-06T11:36:28;2.50;;;0.95;;
17347;SDS011;8791;50.876;4.342;2022-08-06T11:39:13;1.00;;;0.63;;
17347;SDS011;8791;50.876;4.342;2022-08-06T11:41:44;3.03;;;0.40;;
17347;SDS011;8791;50.876;4.342;2022-08-06T11:44:13;6.63;;;0.73;;
17347;SDS011;8791;50.876;4.342;2022-08-06T11:46:42;8.95;;;0.85;;
17347;SDS011;8791;50.876;4.342;2022-08-06T11:49:11;2.15;;;0.70;;
17347;SDS011;8791;50.876;4.342;2022-08-06T11:51:40;1.02;;;0.55;;
17347;SDS011;8791;50.876;4.342;2022-08-06T11:54:09;1.52;;;0.70;;
17347;SDS011;8791;50.876;4.342;2022-08-06T12:00:06;2.03;;;0.70;;
17347;SDS011;8791;50.876;4.342;2022-08-06T12:05:33;1.20;;;0.57;;
17347;SDS011;8791;50.876;4.342;2022-08-06T12:13:52;2.42;;;0.75;;
17347;SDS011;8791;50.876;4.342;2022-08-06T12:16:30;5.68;;;0.73;;
17347;SDS011;8791;50.876;4.342;2022-08-06T12:18:59;1.67;;;1.15;;
17347;SDS011;8791;50.876;4.342;2022-08-06T12:21:27;2.95;;;0.77;;
17347;SDS011;8791;50.876;4.342;2022-08-06T12:23:55;6.72;;;3.88;;
17347;SDS011;8791;50.876;4.342;2022-08-06T12:26:23;1.83;;;0.85;;
17347;SDS011;8791;50.876;4.342;2022-08-06T12:28:59;1.17;;;0.80;;
17347;SDS011;8791;50.876;4.342;2022-08-06T12:31:31;6.47;;;0.82;;
17347;SDS011;8791;50.876;4.342;2022-08-06T12:34:00;4.25;;;1.17;;
17347;SDS011;8791;50.876;4.342;2022-08-06T12:36:31;1.08;;;0.65;;
17347;SDS011;8791;50.876;4.342;2022-08-06T12:38:59;0.82;;;0.70;;
17347;SDS011;8791;50.876;4.342;2022-08-06T12:41:39;3.38;;;0.85;;
17347;SDS011;8791;50.876;4.342;2022-08-06T12:44:10;1.38;;;0.70;;
17347;SDS011;8791;50.876;4.342;2022-08-06T12:46:38;1.05;;;0.77;;
17347;SDS011;8791;50.876;4.342;2022-08-06T12:49:05;1.80;;;1.15;;
17347;SDS011;8791;50.876;4.342;2022-08-06T12:51:33;6.28;;;0.88;;
17347;SDS011;8791;50.876;4.342;2022-08-06T12:54:00;3.58;;;0.88;;
17347;SDS011;8791;50.876;4.342;2022-08-06T12:56:29;2.47;;;1.00;;
17347;SDS011;8791;50.876;4.342;2022-08-06T12:59:01;1.55;;;1.00;;
17347;SDS011;8791;50.876;4.342;2022-08-06T13:01:29;3.33;;;0.80;;
17347;SDS011;8791;50.876;4.342;2022-08-06T13:03:58;1.80;;;0.80;;
17347;SDS011;8791;50.876;4.342;2022-08-06T13:06:27;2.03;;;1.55;;
17347;SDS011;8791;50.876;4.342;2022-08-06T13:08:55;1.63;;;0.95;;
17347;SDS011;8791;50.876;4.342;2022-08-06T13:11:30;4.28;;;1.23;;
17347;SDS011;8791;50.876;4.342;2022-08-06T13:13:58;2.17;;;0.80;;
17347;SDS011;8791;50.876;4.342;2022-08-06T13:16:38;4.72;;;1.83;;
17347;SDS011;8791;50.876;4.342;2022-08-06T13:19:06;1.25;;;1.05;;
17347;SDS011;8791;50.876;4.342;2022-08-06T13:21:34;1.55;;;0.80;;
17347;SDS011;8791;50.876;4.342;2022-08-06T13:24:02;3.92;;;1.33;;
17347;SDS011;8791;50.876;4.342;2022-08-06T13:26:30;3.25;;;1.25;;
17347;SDS011;8791;50.876;4.342;2022-08-06T13:29:09;1.60;;;1.17;;
17347;SDS011;8791;50.876;4.342;2022-08-06T13:31:38;2.17;;;1.23;;
17347;SDS011;8791;50.876;4.342;2022-08-06T13:34:07;5.00;;;1.30;;
17347;SDS011;8791;50.876;4.342;2022-08-06T13:36:36;6.90;;;1.05;;
17347;SDS011;8791;50.876;4.342;2022-08-06T13:39:22;2.83;;;0.90;;
17347;SDS011;8791;50.876;4.342;2022-08-06T13:42:03;4.78;;;2.05;;
17347;SDS011;8791;50.876;4.342;2022-08-06T13:44:33;4.32;;;1.40;;
17347;SDS011;8791;50.876;4.342;2022-08-06T13:47:03;2.25;;;1.10;;
17347;SDS011;8791;50.876;4.342;2022-08-06T13:49:31;1.38;;;1.08;;
17347;SDS011;8791;50.876;4.342;2022-08-06T13:51:58;1.23;;;0.70;;
17347;SDS011;8791;50.876;4.342;2022-08-06T13:54:25;1.73;;;0.80;;
17347;SDS011;8791;50.876;4.342;2022-08-06T13:56:54;1.15;;;0.90;;
17347;SDS011;8791;50.876;4.342;2022-08-06T13:59:25;2.28;;;1.00;;
17347;SDS011;8791;50.876;4.342;2022-08-06T14:01:53;2.70;;;1.30;;
17347;SDS011;8791;50.876;4.342;2022-08-06T14:04:24;1.92;;;1.00;;
17347;SDS011;8791;50.876;4.342;2022-08-06T14:06:53;1.65;;;1.30;;
17347;SDS011;8791;50.876;4.342;2022-08-06T14:09:21;2.33;;;1.10;;
17347;SDS011;8791;50.876;4.342;2022-08-06T14:11:50;4.13;;;1.15;;
17347;SDS011;8791;50.876;4.342;2022-08-06T14:14:19;1.65;;;1.00;;
17347;SDS011;8791;50.876;4.342;2022-08-06T14:16:47;1.98;;;1.42;;
17347;SDS011;8791;50.876;4.342;2022-08-06T14:19:13;2.45;;;1.90;;
17347;SDS011;8791;50.876;4.342;2022-08-06T14:21:42;2.00;;;1.80;;
17347;SDS011;8791;50.876;4.342;2022-08-06T14:24:08;3.65;;;1.33;;
17347;SDS011;8791;50.876;4.342;2022-08-06T14:26:35;1.95;;;1.08;;
17347;SDS011;8791;50.876;4.342;2022-08-06T14:29:03;3.50;;;1.05;;
17347;SDS011;8791;50.876;4.342;2022-08-06T14:31:30;2.40;;;1.15;;
17347;SDS011;8791;50.876;4.342;2022-08-06T14:33:59;1.63;;;1.15;;
17347;SDS011;8791;50.876;4.342;2022-08-06T14:36:26;2.10;;;1.30;;
17347;SDS011;8791;50.876;4.342;2022-08-06T14:38:55;3.97;;;1.55;;
17347;SDS011;8791;50.876;4.342;2022-08-06T14:41:22;2.47;;;1.52;;
17347;SDS011;8791;50.876;4.342;2022-08-06T14:44:07;1.38;;;1.02;;
17347;SDS011;8791;50.876;4.342;2022-08-06T14:46:52;6.43;;;1.50;;
17347;SDS011;8791;50.876;4.342;2022-08-06T14:49:19;3.47;;;1.25;;
17347;SDS011;8791;50.876;4.342;2022-08-06T14:51:46;2.78;;;1.25;;
17347;SDS011;8791;50.876;4.342;2022-08-06T14:54:17;1.40;;;1.20;;
17347;SDS011;8791;50.876;4.342;2022-08-06T14:56:45;1.23;;;1.13;;
17347;SDS011;8791;50.876;4.342;2022-08-06T14:59:13;2.70;;;0.90;;
17347;SDS011;8791;50.876;4.342;2022-08-06T15:01:40;3.13;;;1.20;;
17347;SDS011;8791;50.876;4.342;2022-08-06T15:04:08;3.65;;;1.67;;
17347;SDS011;8791;50.876;4.342;2022-08-06T15:06:35;1.13;;;1.00;;
17347;SDS011;8791;50.876;4.342;2022-08-06T15:09:02;2.88;;;1.20;;
17347;SDS011;8791;50.876;4.342;2022-08-06T15:11:30;4.15;;;1.55;;
17347;SDS011;8791;50.876;4.342;2022-08-06T15:13:57;1.38;;;1.27;;
17347;SDS011;8791;50.876;4.342;2022-08-06T15:16:24;1.42;;;1.10;;
17347;SDS011;8791;50.876;4.342;2022-08-06T15:18:52;3.15;;;1.40;;
17347;SDS011;8791;50.876;4.342;2022-08-06T15:21:19;1.45;;;1.30;;
17347;SDS011;8791;50.876;4.342;2022-08-06T15:23:46;4.88;;;1.45;;
17347;SDS011;8791;50.876;4.342;2022-08-06T15:26:15;1.63;;;1.45;;
17347;SDS011;8791;50.876;4.342;2022-08-06T15:28:43;2.88;;;1.52;;
17347;SDS011;8791;50.876;4.342;2022-08-06T15:31:10;2.10;;;1.40;;
17347;SDS011;8791;50.876;4.342;2022-08-06T15:33:37;4.03;;;1.15;;
17347;SDS011;8791;50.876;4.342;2022-08-06T15:36:07;3.22;;;1.75;;
17347;SDS011;8791;50.876;4.342;2022-08-06T15:38:34;2.08;;;1.38;;
17347;SDS011;8791;50.876;4.342;2022-08-06T15:41:03;3.70;;;1.25;;
17347;SDS011;8791;50.876;4.342;2022-08-06T15:43:33;7.13;;;2.13;;